Latest Weather Observations for Mount Isa

IDQ60801

Issued at 9:02 pm EST Saturday 29 April 2017 (issued every 30 minutes, with the page automatically refreshed every 10 minutes)

About weather observations | Map of weather stations | Latest weather observations for QLD | Other Formats
Station Details ID: 029127 Name: MOUNT ISA AERO Lat: -20.68 Lon: 139.49 Height: 340.3 m
Data from the previous 72 hours. | See also: Recent months at Mount Isa
Date/Time
EST
Temp
°C
App
Temp
°C
Dew
Point
°C
Rel
Hum
%
Delta-T
°C
Wind Press
QNH
hPa
Press
MSL
hPa
Rain since
9am
mm
Dir  Spd
km/h
Gust
km/h
Spd
kts
Gust
kts
29/08:30pm 16.0 12.0 -2.0 29 7.5 S 9 11 5 6 1018.2 1016.3 0.0
29/08:00pm 16.9 12.5 -2.7 26 8.1 S 11 11 6 6 1017.6 1015.8 0.0
29/07:30pm 19.3 14.5 -2.9 22 9.4 SSE 13 15 7 8 1017.3 1015.4 0.0
29/07:00pm 21.8 16.7 -2.1 20 10.5 SSE 15 19 8 10 1016.9 1015.0 0.0
29/06:30pm 23.0 18.7 -1.8 19 11.0 SSE 11 15 6 8 1016.6 1014.7 0.0
29/06:00pm 24.5 20.1 -2.1 17 11.9 SE 11 15 6 8 1016.6 1014.7 0.0
29/05:30pm 25.8 21.0 -2.8 15 12.8 SE 13 19 7 10 1016.3 1014.4 0.0
29/05:00pm 26.2 21.0 -2.4 15 12.9 ESE 15 19 8 10 1015.9 1014.0 0.0
29/04:30pm 26.6 21.9 -2.1 15 13.1 SE 13 19 7 10 1015.8 1013.9 0.0
29/04:00pm 26.5 21.7 -2.2 15 13.0 ESE 13 19 7 10 1015.9 1014.0 0.0
29/03:30pm 26.3 21.5 -2.4 15 13.0 SE 13 19 7 10 1015.8 1013.9 0.0
29/03:00pm 25.7 20.9 -2.8 15 12.7 SSE 13 28 7 15 1016.0 1014.1 0.0
29/02:30pm 25.5 20.5 -1.3 17 12.3 ESE 15 20 8 11 1016.4 1014.5 0.0
29/02:00pm 25.4 20.4 -1.4 17 12.2 ESE 15 28 8 15 1016.7 1014.8 0.0
29/01:30pm 24.9 19.9 -1.0 18 11.9 SE 15 26 8 14 1017.2 1015.3 0.0
29/01:00pm 23.2 18.4 -2.4 18 11.3 E 13 24 7 13 1017.5 1015.7 0.0
29/12:30pm 23.2 17.8 -1.0 20 11.0 SE 17 26 9 14 1018.1 1016.2 0.0
29/12:00pm 22.9 17.1 -1.2 20 10.8 ESE 19 28 10 15 1018.5 1016.6 0.0
29/11:30am 21.9 16.1 -1.4 21 10.4 SE 19 30 10 16 1019.1 1017.2 0.0
29/11:00am 21.4 14.9 0.0 24 9.7 ESE 24 30 13 16 1019.3 1017.4 0.0
29/10:30am 21.0 14.0 -0.3 24 9.6 ESE 26 37 14 20 1019.5 1017.6 0.0
29/10:00am 20.3 13.7 -0.3 25 9.2 SE 24 35 13 19 1019.6 1017.7 0.0
29/09:30am 18.6 13.0 -0.2 28 8.3 ESE 19 26 10 14 1019.4 1017.5 0.0
29/09:00am 17.8 12.1 -0.5 29 8.0 ESE 19 32 10 17 1019.3 1017.4 0.0
29/08:30am 16.8 11.0 -0.4 31 7.5 SE 20 30 11 16 1019.3 1017.4 0.0
29/08:00am 15.4 10.8 -0.8 33 6.9 SE 13 22 7 12 1019.0 1017.1 0.0
29/07:30am 14.1 9.5 -1.1 35 6.3 SE 13 17 7 9 1019.1 1017.2 0.0
29/07:00am 13.1 8.1 -1.2 37 5.9 SE 15 20 8 11 1018.9 1017.0 0.0
29/06:30am 13.3 8.7 -1.4 36 6.0 SE 13 22 7 12 1018.8 1016.9 0.0
29/06:00am 13.8 8.8 -1.4 35 6.3 SE 15 19 8 10 1018.6 1016.7 0.0
29/05:30am 13.9 8.5 -1.3 35 6.3 SSE 17 26 9 14 1018.6 1016.7 0.0
29/05:00am 10.9 5.5 -1.2 43 4.9 SSE 17 26 9 14 1018.4 1016.5 0.0
29/04:30am 11.2 6.8 -2.2 39 5.3 S 11 15 6 8 1018.5 1016.6 0.0
29/04:00am 13.5 9.2 -2.0 34 6.3 SSE 11 15 6 8 1018.5 1016.6 0.0
29/03:30am 14.3 9.6 -2.1 32 6.7 SSE 13 15 7 8 1018.6 1016.7 0.0
29/03:00am 14.2 9.8 -2.2 32 6.7 SSE 11 15 6 8 1018.8 1016.9 0.0
29/02:30am 14.0 8.5 -2.0 33 6.5 S 17 20 9 11 1019.4 1017.5 0.0
29/02:00am 13.2 8.8 -2.7 33 6.3 SSE 11 13 6 7 1019.6 1017.7 0.0
29/01:30am 14.5 9.3 -2.4 31 6.9 S 15 17 8 9 1019.7 1017.8 0.0
29/01:00am 13.0 8.9 -2.9 33 6.3 S 9 11 5 6 1020.1 1018.3 0.0
29/12:30am 11.8 7.6 -3.9 33 6.0 S 9 9 5 5 1020.2 1018.4 0.0
29/12:00am 14.7 10.6 -3.1 29 7.1 S 9 11 5 6 1020.1 1018.3 0.0
 
Date/Time
EST
Temp
°C
App
Temp
°C
Dew
Point
°C
Rel
Hum
%
Delta-T
°C
Wind Press
QNH
hPa
Press
MSL
hPa
Rain since
9am
mm
Dir  Spd
km/h
Gust
km/h
Spd
kts
Gust
kts
28/11:30pm 17.0 12.2 -2.6 26 8.1 SSE 13 15 7 8 1020.0 1018.1 0.0
28/11:00pm 17.2 12.0 -3.0 25 8.3 SSE 15 20 8 11 1019.8 1017.9 0.0
28/10:30pm 18.0 12.0 -2.8 24 8.7 SSE 19 26 10 14 1020.1 1018.3 0.0
28/10:00pm 18.3 12.7 -3.2 23 8.9 SSE 17 22 9 12 1020.1 1018.3 0.0
28/09:30pm 18.5 12.9 -3.0 23 9.0 S 17 20 9 11 1020.1 1018.3 0.0
28/09:00pm 18.8 13.5 -3.3 22 9.2 SSE 15 19 8 10 1019.9 1018.0 0.0
28/08:30pm 19.2 14.3 -3.0 22 9.3 SSE 13 19 7 10 1019.8 1017.9 0.0
28/08:00pm 19.6 14.7 -3.3 21 9.6 SSE 13 17 7 9 1019.5 1017.6 0.0
28/07:30pm 20.1 14.4 -3.5 20 9.9 SSE 17 20 9 11 1019.0 1017.1 0.0
28/07:00pm 20.8 15.1 -3.6 19 10.3 SSE 17 24 9 13 1018.9 1017.0 0.0
28/06:30pm 21.1 15.8 -3.4 19 10.4 SE 15 22 8 12 1018.5 1016.6 0.0
28/06:00pm 22.1 15.9 -3.3 18 10.9 SSE 20 26 11 14 1018.1 1016.2 0.0
28/05:30pm 22.9 16.8 -2.6 18 11.2 SSE 20 30 11 16 1017.6 1015.8 0.0
28/05:00pm 23.9 17.4 -2.6 17 11.7 SSE 22 33 12 18 1017.5 1015.7 0.0
28/04:30pm 24.5 18.4 -2.1 17 11.9 SSE 20 28 11 15 1017.6 1015.8 0.0
28/04:00pm 24.6 18.7 -2.0 17 11.9 SSE 19 30 10 16 1017.5 1015.7 0.0
28/03:30pm 24.6 18.2 -2.0 17 12.0 SSE 22 30 12 16 1017.6 1015.8 0.0
28/03:00pm 24.2 18.7 -2.4 17 11.8 SSE 17 22 9 12 1017.6 1015.8 0.0
28/02:30pm 24.0 17.9 -2.5 17 11.7 SSE 20 32 11 17 1017.9 1016.0 0.0
28/02:00pm 22.6 16.3 -3.7 17 11.2 S 20 32 11 17 1018.4 1016.5 0.0
28/01:30pm 23.1 17.2 -2.5 18 11.3 SE 19 33 10 18 1019.0 1017.1 0.0
28/01:00pm 22.3 16.4 -2.4 19 10.8 SE 19 30 10 16 1019.4 1017.5 0.0
28/12:30pm 21.9 15.4 -2.7 19 10.7 SSE 22 32 12 17 1020.0 1018.1 0.0
28/12:00pm 20.9 14.4 -2.2 21 10.0 SE 22 32 12 17 1020.5 1018.7 0.0
28/11:30am 20.5 14.0 -2.5 21 9.9 SE 22 32 12 17 1021.1 1019.2 0.0
28/11:00am 19.9 12.7 -1.8 23 9.4 SE 26 35 14 19 1021.5 1019.6 0.0
28/10:30am 19.2 12.0 -1.8 24 9.0 SE 26 41 14 22 1021.7 1019.8 0.0
28/10:00am 18.1 11.3 -2.2 25 8.6 SE 24 35 13 19 1021.8 1019.9 0.0
28/09:30am 17.2 10.0 -1.9 27 8.1 ESE 26 37 14 20 1022.0 1020.1 0.0
28/09:00am 16.0 9.2 -2.0 29 7.5 SE 24 35 13 19 1021.9 1020.0 0.0
28/08:30am 15.9 7.5 -2.1 29 7.5 SE 32 46 17 25 1021.3 1019.4 0.0
28/08:13am 15.0 7.0 -2.4 30 7.1 SE 30 48 16 26 1021.3 1019.4 0.0
28/08:00am 14.9 6.9 -2.5 30 7.1 SE 30 43 16 23 1021.3 1019.4 0.0
28/07:30am 14.2 8.1 -2.2 32 6.7 SE 20 35 11 19 1021.2 1019.3 0.0
28/07:00am 13.9 7.0 -2.5 32 6.6 SE 24 37 13 20 1020.5 1018.7 0.0
28/06:30am 14.2 7.0 -2.2 32 6.7 SSE 26 37 14 20 1020.2 1018.4 0.0
28/06:00am 14.3 6.7 -2.1 32 6.7 SE 28 43 15 23 1020.0 1018.1 0.0
28/05:30am 14.6 7.7 -2.3 31 6.9 SE 24 35 13 19 1019.9 1018.0 0.0
28/05:00am 15.1 9.1 -1.9 31 7.0 SSE 20 30 11 16 1019.8 1017.9 0.0
28/04:30am 14.9 8.5 -1.6 32 6.9 SE 22 33 12 18 1019.5 1017.6 0.0
28/04:00am 15.2 9.2 -1.4 32 6.9 SSE 20 30 11 16 1019.5 1017.6 0.0
28/03:30am 15.4 7.9 -1.6 31 7.1 SSE 28 41 15 22 1019.6 1017.7 0.0
28/03:00am 15.5 7.6 -1.5 31 7.1 SSE 30 37 16 20 1019.8 1017.9 0.0
28/02:30am 15.8 7.5 -1.7 30 7.3 SSE 32 41 17 22 1020.1 1018.3 0.0
28/02:00am 16.1 9.3 -1.9 29 7.5 SSE 24 33 13 18 1020.2 1018.4 0.0
28/01:31am 16.4 8.1 -1.7 29 7.6 S 32 50 17 27 1020.2 1018.4 0.0
28/01:30am 16.4 7.9 -1.7 29 7.6 S 33 50 18 27 1020.2 1018.4 0.0
28/01:00am 16.6 8.3 -1.5 29 7.6 SSE 32 44 17 24 1020.4 1018.6 0.0
28/12:30am 16.8 11.0 -1.8 28 7.8 SSE 19 30 10 16 1020.4 1018.6 0.0
28/12:00am 17.2 10.8 -1.4 28 7.9 SSE 22 37 12 20 1020.3 1018.5 0.0
 
Date/Time
EST
Temp
°C
App
Temp
°C
Dew
Point
°C
Rel
Hum
%
Delta-T
°C
Wind Press
QNH
hPa
Press
MSL
hPa
Rain since
9am
mm
Dir  Spd
km/h
Gust
km/h
Spd
kts
Gust
kts
27/11:30pm 17.7 9.4 -1.5 27 8.2 SSE 32 44 17 24 1020.2 1018.4 0.0
27/11:00pm 18.1 9.6 -1.7 26 8.4 SSE 33 46 18 25 1020.3 1018.5 0.0
27/10:30pm 18.3 10.0 -2.0 25 8.6 SSE 32 46 17 25 1020.3 1018.5 0.0
27/10:00pm 18.9 10.4 -2.1 24 8.9 SSE 33 46 18 25 1020.4 1018.6 0.0
27/09:49pm 19.0 10.6 -2.6 23 9.1 SSE 32 52 17 28 1020.2 1018.4 0.0
27/09:30pm 19.3 12.1 -2.3 23 9.2 SSE 26 37 14 20 1020.3 1018.5 0.0
27/09:00pm 19.5 11.9 -2.2 23 9.3 SSE 28 35 15 19 1020.1 1018.3 0.0
27/08:30pm 20.2 11.9 -1.6 23 9.5 S 32 44 17 24 1019.7 1017.8 0.0
27/08:00pm 20.5 13.8 -1.3 23 9.6 SSE 24 35 13 19 1019.5 1017.6 0.0
27/07:30pm 20.5 14.5 -1.3 23 9.6 SSE 20 28 11 15 1019.2 1017.3 0.0
27/07:00pm 21.0 13.8 -2.1 21 10.0 SSE 26 35 14 19 1019.1 1017.2 0.0
27/06:30pm 21.5 14.8 -1.1 22 10.1 SSE 24 32 13 17 1018.9 1017.0 0.0
27/06:00pm 22.2 15.5 -1.1 21 10.4 SSE 24 33 13 18 1018.7 1016.8 0.0
27/05:30pm 23.0 15.6 -0.5 21 10.7 SSE 28 39 15 21 1018.4 1016.5 0.0
27/05:00pm 23.6 15.5 0.0 21 10.9 S 32 43 17 23 1018.2 1016.3 0.0
27/04:30pm 24.0 16.8 1.0 22 10.9 SSE 28 43 15 23 1017.9 1016.0 0.0
27/04:10pm 24.9 17.8 1.1 21 11.4 S 28 46 15 25 1017.9 1016.0 0.0
27/04:00pm 24.7 17.3 1.6 22 11.1 SSE 30 39 16 21 1017.9 1016.0 0.0
27/03:30pm 25.1 18.4 1.3 21 11.4 SSE 26 37 14 20 1018.0 1016.1 0.0
27/03:00pm 25.1 18.3 3.1 24 10.9 S 28 41 15 22 1018.1 1016.2 0.0
27/02:30pm 24.7 18.2 2.8 24 10.8 SSE 26 48 14 26 1018.4 1016.5 0.0
27/02:00pm 24.0 16.7 2.2 24 10.5 S 30 41 16 22 1018.6 1016.7 0.0
27/01:30pm 24.1 17.5 2.3 24 10.6 SSE 26 35 14 19 1018.9 1017.0 0.0
27/01:00pm 23.9 17.9 3.2 26 10.2 SSE 24 39 13 21 1019.2 1017.3 0.0
27/12:48pm 23.4 16.7 3.4 27 9.9 SSE 28 50 15 27 1019.5 1017.6 0.0
27/12:30pm 22.7 15.9 3.3 28 9.5 S 28 39 15 21 1019.8 1017.9 0.0
27/12:18pm 22.9 15.8 3.4 28 9.6 S 30 48 16 26 1020.1 1018.3 0.0
27/12:00pm 22.4 15.3 3.5 29 9.2 SSE 30 43 16 23 1020.5 1018.7 0.0
27/11:30am 22.3 15.6 3.9 30 9.1 SSE 28 41 15 22 1021.0 1019.1 0.0
27/11:00am 21.3 14.3 4.0 32 8.5 SSE 30 39 16 21 1021.3 1019.4 0.0
27/10:30am 21.0 14.5 4.6 34 8.1 SSE 28 37 15 20 1021.5 1019.6 0.0
27/10:00am 20.0 13.2 4.9 37 7.5 S 30 39 16 21 1021.4 1019.5 0.0
27/09:30am 19.3 12.9 5.4 40 6.9 SSE 28 39 15 21 1021.3 1019.4 0.0
27/09:00am 18.3 11.2 5.5 43 6.3 SSE 32 41 17 22 1021.0 1019.1 0.0
27/08:30am 17.8 10.5 5.4 44 6.1 SSE 33 41 18 22 1020.6 1018.8 0.0
27/08:00am 17.5 11.2 5.8 46 5.8 SSE 28 37 15 20 1020.4 1018.6 0.0
27/07:30am 17.1 12.5 5.7 47 5.6 S 19 32 10 17 1020.0 1018.1 0.0
27/07:00am 17.0 10.6 5.3 46 5.7 SSE 28 37 15 20 1019.7 1017.8 0.0
27/06:30am 17.4 10.5 4.7 43 6.2 SSE 30 41 16 22 1019.2 1017.3 0.0
27/06:00am 18.0 12.6 4.6 41 6.5 S 22 33 12 18 1018.9 1017.0 0.0
27/05:30am 18.3 12.8 4.1 39 6.8 S 22 33 12 18 1018.5 1016.6 0.0
27/05:00am 18.6 13.4 3.6 37 7.2 S 20 30 11 16 1018.5 1016.6 0.0
27/04:30am 18.9 12.6 3.5 36 7.4 S 26 33 14 18 1018.3 1016.4 0.0
27/04:00am 19.2 13.1 3.0 34 7.7 SSE 24 32 13 17 1018.4 1016.5 0.0
27/03:30am 19.4 13.4 3.2 34 7.7 S 24 35 13 19 1018.3 1016.4 0.0
27/03:00am 19.6 12.7 2.5 32 8.0 SSE 28 35 15 19 1018.3 1016.4 0.0
27/02:30am 19.8 13.6 2.2 31 8.3 S 24 33 13 18 1018.4 1016.5 0.0
27/02:00am 19.9 13.0 2.3 31 8.3 SSE 28 35 15 19 1018.5 1016.6 0.0
27/01:30am 20.3 13.3 2.2 30 8.5 S 28 39 15 21 1018.8 1016.9 0.0
27/01:15am 20.5 13.5 1.9 29 8.7 S 28 46 15 25 1018.9 1017.0 0.0
27/01:00am 20.5 13.0 1.4 28 8.8 S 30 39 16 21 1019.0 1017.1 0.0
27/12:30am 21.2 14.0 1.0 26 9.4 S 28 37 15 20 1019.1 1017.2 0.0
27/12:00am 21.7 14.1 0.8 25 9.7 S 30 39 16 21 1019.1 1017.2 0.0
 
Date/Time
EST
Temp
°C
App
Temp
°C
Dew
Point
°C
Rel
Hum
%
Delta-T
°C
Wind Press
QNH
hPa
Press
MSL
hPa
Rain since
9am
mm
Dir  Spd
km/h
Gust
km/h
Spd
kts
Gust
kts
26/11:30pm 22.2 14.6 0.7 24 10.0 S 30 41 16 22 1019.1 1017.2 0.0
26/11:00pm 22.5 15.8 3.6 29 9.3 S 28 37 15 20 1019.2 1017.3 0.0
26/10:30pm 23.0 16.9 5.0 31 9.1 S 26 39 14 21 1019.0 1017.1 0.0
26/10:00pm 23.2 18.4 5.6 32 9.0 S 20 32 11 17 1018.7 1016.8 0.0
26/09:30pm 23.6 18.9 6.0 32 9.1 S 20 28 11 15 1018.4 1016.5 0.0

Other Formats:

Comma delimited format used in spreadsheet applications
http://www.bom.gov.au/fwo/IDQ60801/IDQ60801.94332.axf

JavaScript Object Notation format (JSON) in row-major order
http://www.bom.gov.au/fwo/IDQ60801/IDQ60801.94332.json